sensor_id;sensor_type;location;lat;lon;timestamp;temperature;humidity
16287;DHT22;8251;53.568;10.018;2024-02-21T00:02:19;11.70;94.00
16287;DHT22;8251;53.568;10.018;2024-02-21T00:04:50;11.70;94.10
16287;DHT22;8251;53.568;10.018;2024-02-21T00:07:17;11.70;94.10
16287;DHT22;8251;53.568;10.018;2024-02-21T00:09:44;11.70;94.00
16287;DHT22;8251;53.568;10.018;2024-02-21T00:12:14;11.70;94.20
16287;DHT22;8251;53.568;10.018;2024-02-21T00:14:41;11.60;94.30
16287;DHT22;8251;53.568;10.018;2024-02-21T00:17:09;11.60;94.40
16287;DHT22;8251;53.568;10.018;2024-02-21T00:19:36;11.60;94.40
16287;DHT22;8251;53.568;10.018;2024-02-21T00:22:04;11.60;94.50
16287;DHT22;8251;53.568;10.018;2024-02-21T00:24:31;11.50;94.60
16287;DHT22;8251;53.568;10.018;2024-02-21T00:26:58;11.50;94.60
16287;DHT22;8251;53.568;10.018;2024-02-21T00:29:25;11.60;94.60
16287;DHT22;8251;53.568;10.018;2024-02-21T00:31:53;11.60;94.50
16287;DHT22;8251;53.568;10.018;2024-02-21T00:34:20;11.50;94.50
16287;DHT22;8251;53.568;10.018;2024-02-21T00:36:47;11.60;94.60
16287;DHT22;8251;53.568;10.018;2024-02-21T00:39:19;11.50;94.70
16287;DHT22;8251;53.568;10.018;2024-02-21T00:41:46;11.60;94.70
16287;DHT22;8251;53.568;10.018;2024-02-21T00:44:13;11.50;94.80
16287;DHT22;8251;53.568;10.018;2024-02-21T00:46:39;11.50;94.70
16287;DHT22;8251;53.568;10.018;2024-02-21T00:49:06;11.50;94.70
16287;DHT22;8251;53.568;10.018;2024-02-21T00:51:34;11.50;94.70
16287;DHT22;8251;53.568;10.018;2024-02-21T00:54:00;11.50;94.80
16287;DHT22;8251;53.568;10.018;2024-02-21T00:56:31;11.50;94.90
16287;DHT22;8251;53.568;10.018;2024-02-21T00:58:58;11.50;94.90
16287;DHT22;8251;53.568;10.018;2024-02-21T01:01:25;11.40;95.00
16287;DHT22;8251;53.568;10.018;2024-02-21T01:03:52;11.40;95.10
16287;DHT22;8251;53.568;10.018;2024-02-21T01:06:22;11.40;95.10
16287;DHT22;8251;53.568;10.018;2024-02-21T01:08:52;11.40;95.20
16287;DHT22;8251;53.568;10.018;2024-02-21T01:11:34;11.40;95.10
16287;DHT22;8251;53.568;10.018;2024-02-21T01:14:01;11.40;95.20
16287;DHT22;8251;53.568;10.018;2024-02-21T01:16:28;11.40;95.20
16287;DHT22;8251;53.568;10.018;2024-02-21T01:18:55;11.40;95.20
16287;DHT22;8251;53.568;10.018;2024-02-21T01:21:22;11.40;95.20
16287;DHT22;8251;53.568;10.018;2024-02-21T01:23:50;11.40;95.20
16287;DHT22;8251;53.568;10.018;2024-02-21T01:26:20;11.40;95.30
16287;DHT22;8251;53.568;10.018;2024-02-21T01:28:49;11.40;95.20
16287;DHT22;8251;53.568;10.018;2024-02-21T01:31:19;11.40;95.30
16287;DHT22;8251;53.568;10.018;2024-02-21T01:33:55;11.40;95.40
16287;DHT22;8251;53.568;10.018;2024-02-21T01:36:22;11.40;95.40
16287;DHT22;8251;53.568;10.018;2024-02-21T01:38:49;11.40;95.50
16287;DHT22;8251;53.568;10.018;2024-02-21T01:41:18;11.40;95.50
16287;DHT22;8251;53.568;10.018;2024-02-21T01:43:52;11.40;95.50
16287;DHT22;8251;53.568;10.018;2024-02-21T01:46:20;11.40;95.50
16287;DHT22;8251;53.568;10.018;2024-02-21T01:48:53;11.30;95.70
16287;DHT22;8251;53.568;10.018;2024-02-21T01:51:20;11.30;95.80
16287;DHT22;8251;53.568;10.018;2024-02-21T01:53:47;11.30;96.00
16287;DHT22;8251;53.568;10.018;2024-02-21T01:56:14;11.30;96.10
16287;DHT22;8251;53.568;10.018;2024-02-21T01:58:42;11.30;96.30
16287;DHT22;8251;53.568;10.018;2024-02-21T02:01:13;11.20;96.30
16287;DHT22;8251;53.568;10.018;2024-02-21T02:03:42;11.20;96.40
16287;DHT22;8251;53.568;10.018;2024-02-21T02:06:10;11.20;96.50
16287;DHT22;8251;53.568;10.018;2024-02-21T02:08:38;11.20;96.60
16287;DHT22;8251;53.568;10.018;2024-02-21T02:11:08;11.20;96.60
16287;DHT22;8251;53.568;10.018;2024-02-21T02:13:37;11.20;96.70
16287;DHT22;8251;53.568;10.018;2024-02-21T02:16:05;11.20;96.70
16287;DHT22;8251;53.568;10.018;2024-02-21T02:18:33;11.20;96.70
16287;DHT22;8251;53.568;10.018;2024-02-21T02:21:01;11.20;96.70
16287;DHT22;8251;53.568;10.018;2024-02-21T02:23:29;11.20;96.80
16287;DHT22;8251;53.568;10.018;2024-02-21T02:25:57;11.30;96.80
16287;DHT22;8251;53.568;10.018;2024-02-21T02:28:24;11.20;96.60
16287;DHT22;8251;53.568;10.018;2024-02-21T02:30:56;11.30;96.70
16287;DHT22;8251;53.568;10.018;2024-02-21T02:33:23;11.30;96.60
16287;DHT22;8251;53.568;10.018;2024-02-21T02:35:59;11.30;96.50
16287;DHT22;8251;53.568;10.018;2024-02-21T02:38:27;11.30;96.40
16287;DHT22;8251;53.568;10.018;2024-02-21T02:41:04;11.30;96.40
16287;DHT22;8251;53.568;10.018;2024-02-21T02:43:32;11.30;96.40
16287;DHT22;8251;53.568;10.018;2024-02-21T02:45:59;11.30;96.40
16287;DHT22;8251;53.568;10.018;2024-02-21T02:48:31;11.30;96.40
16287;DHT22;8251;53.568;10.018;2024-02-21T02:50:58;11.30;96.30
16287;DHT22;8251;53.568;10.018;2024-02-21T02:53:28;11.30;96.30
16287;DHT22;8251;53.568;10.018;2024-02-21T02:55:55;11.20;96.30
16287;DHT22;8251;53.568;10.018;2024-02-21T02:58:30;11.30;96.30
16287;DHT22;8251;53.568;10.018;2024-02-21T03:00:57;11.30;96.10
16287;DHT22;8251;53.568;10.018;2024-02-21T03:03:24;11.30;96.20
16287;DHT22;8251;53.568;10.018;2024-02-21T03:05:51;11.30;96.10
16287;DHT22;8251;53.568;10.018;2024-02-21T03:08:19;11.30;96.10
16287;DHT22;8251;53.568;10.018;2024-02-21T03:10:46;11.30;96.10
16287;DHT22;8251;53.568;10.018;2024-02-21T03:13:13;11.30;96.00
16287;DHT22;8251;53.568;10.018;2024-02-21T03:15:41;11.40;96.00
16287;DHT22;8251;53.568;10.018;2024-02-21T03:18:17;11.40;95.90
16287;DHT22;8251;53.568;10.018;2024-02-21T03:20:46;11.40;95.90
16287;DHT22;8251;53.568;10.018;2024-02-21T03:23:34;11.40;95.90
16287;DHT22;8251;53.568;10.018;2024-02-21T03:26:02;11.30;95.80
16287;DHT22;8251;53.568;10.018;2024-02-21T03:28:29;11.40;95.80
16287;DHT22;8251;53.568;10.018;2024-02-21T03:30:57;11.40;95.80
16287;DHT22;8251;53.568;10.018;2024-02-21T03:33:29;11.40;95.70
16287;DHT22;8251;53.568;10.018;2024-02-21T03:35:56;11.40;95.70
16287;DHT22;8251;53.568;10.018;2024-02-21T03:38:33;11.40;95.80
16287;DHT22;8251;53.568;10.018;2024-02-21T03:41:12;11.40;95.60
16287;DHT22;8251;53.568;10.018;2024-02-21T03:43:45;11.40;95.60
16287;DHT22;8251;53.568;10.018;2024-02-21T03:46:14;11.50;95.50
16287;DHT22;8251;53.568;10.018;2024-02-21T03:48:42;11.40;95.50
16287;DHT22;8251;53.568;10.018;2024-02-21T03:51:12;11.50;95.50
16287;DHT22;8251;53.568;10.018;2024-02-21T03:53:44;11.50;95.50
16287;DHT22;8251;53.568;10.018;2024-02-21T03:56:15;11.50;95.50
16287;DHT22;8251;53.568;10.018;2024-02-21T03:58:42;11.50;95.50
16287;DHT22;8251;53.568;10.018;2024-02-21T04:01:10;11.50;95.60
16287;DHT22;8251;53.568;10.018;2024-02-21T04:03:50;11.40;95.70
16287;DHT22;8251;53.568;10.018;2024-02-21T04:06:29;11.40;95.80
16287;DHT22;8251;53.568;10.018;2024-02-21T04:08:57;11.40;95.80
16287;DHT22;8251;53.568;10.018;2024-02-21T04:11:24;11.50;95.90
16287;DHT22;8251;53.568;10.018;2024-02-21T04:13:51;11.40;96.00
16287;DHT22;8251;53.568;10.018;2024-02-21T04:16:18;11.40;96.10
16287;DHT22;8251;53.568;10.018;2024-02-21T04:18:50;11.40;96.10
16287;DHT22;8251;53.568;10.018;2024-02-21T04:21:18;11.40;96.10
16287;DHT22;8251;53.568;10.018;2024-02-21T04:23:45;11.30;96.20
16287;DHT22;8251;53.568;10.018;2024-02-21T04:26:12;11.30;96.20
16287;DHT22;8251;53.568;10.018;2024-02-21T04:28:47;11.30;96.30
16287;DHT22;8251;53.568;10.018;2024-02-21T04:31:14;11.30;96.30
16287;DHT22;8251;53.568;10.018;2024-02-21T04:33:41;11.40;96.40
16287;DHT22;8251;53.568;10.018;2024-02-21T04:36:13;11.30;96.40
16287;DHT22;8251;53.568;10.018;2024-02-21T04:38:41;11.30;96.40
16287;DHT22;8251;53.568;10.018;2024-02-21T04:41:10;11.30;96.50
16287;DHT22;8251;53.568;10.018;2024-02-21T04:43:38;11.30;96.40
16287;DHT22;8251;53.568;10.018;2024-02-21T04:46:06;11.30;96.50
16287;DHT22;8251;53.568;10.018;2024-02-21T04:48:34;11.30;96.50
16287;DHT22;8251;53.568;10.018;2024-02-21T04:51:01;11.30;96.60
16287;DHT22;8251;53.568;10.018;2024-02-21T04:53:30;11.30;96.60
16287;DHT22;8251;53.568;10.018;2024-02-21T04:55:57;11.30;96.80
16287;DHT22;8251;53.568;10.018;2024-02-21T04:58:24;11.20;96.70
16287;DHT22;8251;53.568;10.018;2024-02-21T05:00:54;11.20;96.80
16287;DHT22;8251;53.568;10.018;2024-02-21T05:03:24;11.20;97.00
16287;DHT22;8251;53.568;10.018;2024-02-21T05:05:54;11.20;96.90
16287;DHT22;8251;53.568;10.018;2024-02-21T05:08:22;11.10;97.10
16287;DHT22;8251;53.568;10.018;2024-02-21T05:10:55;11.20;97.20
16287;DHT22;8251;53.568;10.018;2024-02-21T05:13:25;11.20;97.10
16287;DHT22;8251;53.568;10.018;2024-02-21T05:15:55;11.10;97.50
16287;DHT22;8251;53.568;10.018;2024-02-21T05:18:22;11.10;97.30
16287;DHT22;8251;53.568;10.018;2024-02-21T05:20:49;11.10;97.30
16287;DHT22;8251;53.568;10.018;2024-02-21T05:23:19;11.10;97.30
16287;DHT22;8251;53.568;10.018;2024-02-21T05:25:50;11.20;97.30
16287;DHT22;8251;53.568;10.018;2024-02-21T05:28:19;11.20;97.30
16287;DHT22;8251;53.568;10.018;2024-02-21T05:30:49;11.20;97.30
16287;DHT22;8251;53.568;10.018;2024-02-21T05:33:21;11.20;97.20
16287;DHT22;8251;53.568;10.018;2024-02-21T05:35:50;11.20;97.10
16287;DHT22;8251;53.568;10.018;2024-02-21T05:38:21;11.20;97.10
16287;DHT22;8251;53.568;10.018;2024-02-21T05:40:52;11.20;97.20
16287;DHT22;8251;53.568;10.018;2024-02-21T05:43:22;11.10;97.20
16287;DHT22;8251;53.568;10.018;2024-02-21T05:45:49;11.10;97.30
16287;DHT22;8251;53.568;10.018;2024-02-21T05:48:16;11.20;97.40
16287;DHT22;8251;53.568;10.018;2024-02-21T05:50:43;11.20;97.30
16287;DHT22;8251;53.568;10.018;2024-02-21T05:53:16;11.20;97.30
16287;DHT22;8251;53.568;10.018;2024-02-21T05:55:43;11.20;97.70
16287;DHT22;8251;53.568;10.018;2024-02-21T05:58:14;11.10;97.40
16287;DHT22;8251;53.568;10.018;2024-02-21T06:00:43;11.20;97.40
16287;DHT22;8251;53.568;10.018;2024-02-21T06:03:16;11.20;97.30
16287;DHT22;8251;53.568;10.018;2024-02-21T06:05:45;11.20;97.30
16287;DHT22;8251;53.568;10.018;2024-02-21T06:08:15;11.30;97.20
16287;DHT22;8251;53.568;10.018;2024-02-21T06:10:44;11.20;97.20
16287;DHT22;8251;53.568;10.018;2024-02-21T06:13:14;11.30;97.30
16287;DHT22;8251;53.568;10.018;2024-02-21T06:15:42;11.20;97.40
16287;DHT22;8251;53.568;10.018;2024-02-21T06:18:17;11.20;97.50
16287;DHT22;8251;53.568;10.018;2024-02-21T06:20:46;11.30;97.60
16287;DHT22;8251;53.568;10.018;2024-02-21T06:23:17;11.30;97.40
16287;DHT22;8251;53.568;10.018;2024-02-21T06:25:47;11.40;97.40
16287;DHT22;8251;53.568;10.018;2024-02-21T06:28:19;11.40;97.30
16287;DHT22;8251;53.568;10.018;2024-02-21T06:30:49;11.40;97.30
16287;DHT22;8251;53.568;10.018;2024-02-21T06:33:16;11.50;97.30
16287;DHT22;8251;53.568;10.018;2024-02-21T06:35:46;11.50;97.20
16287;DHT22;8251;53.568;10.018;2024-02-21T06:38:13;11.50;97.10
16287;DHT22;8251;53.568;10.018;2024-02-21T06:40:42;11.50;97.00
16287;DHT22;8251;53.568;10.018;2024-02-21T06:43:16;11.50;97.00
16287;DHT22;8251;53.568;10.018;2024-02-21T06:45:43;11.40;97.10
16287;DHT22;8251;53.568;10.018;2024-02-21T06:48:18;11.40;97.10
16287;DHT22;8251;53.568;10.018;2024-02-21T06:50:45;11.40;97.10
16287;DHT22;8251;53.568;10.018;2024-02-21T06:53:16;11.40;97.10
16287;DHT22;8251;53.568;10.018;2024-02-21T06:55:43;11.40;97.20
16287;DHT22;8251;53.568;10.018;2024-02-21T06:58:10;11.40;97.30
16287;DHT22;8251;53.568;10.018;2024-02-21T07:00:46;11.40;97.20
16287;DHT22;8251;53.568;10.018;2024-02-21T07:03:13;11.50;97.20
16287;DHT22;8251;53.568;10.018;2024-02-21T07:05:42;11.40;97.20
16287;DHT22;8251;53.568;10.018;2024-02-21T07:08:09;11.40;97.10
16287;DHT22;8251;53.568;10.018;2024-02-21T07:10:39;11.50;97.10
16287;DHT22;8251;53.568;10.018;2024-02-21T07:13:15;11.40;97.20
16287;DHT22;8251;53.568;10.018;2024-02-21T07:16:08;11.50;97.20
16287;DHT22;8251;53.568;10.018;2024-02-21T07:18:57;11.50;97.10
16287;DHT22;8251;53.568;10.018;2024-02-21T07:21:29;11.50;97.00
16287;DHT22;8251;53.568;10.018;2024-02-21T07:23:57;11.50;97.00
16287;DHT22;8251;53.568;10.018;2024-02-21T07:26:24;11.50;97.00
16287;DHT22;8251;53.568;10.018;2024-02-21T07:28:55;11.50;97.00
16287;DHT22;8251;53.568;10.018;2024-02-21T07:31:24;11.50;97.10
16287;DHT22;8251;53.568;10.018;2024-02-21T07:33:52;11.50;97.10
16287;DHT22;8251;53.568;10.018;2024-02-21T07:36:29;11.40;97.10
16287;DHT22;8251;53.568;10.018;2024-02-21T07:38:56;11.40;97.10
16287;DHT22;8251;53.568;10.018;2024-02-21T07:41:27;11.40;97.20
16287;DHT22;8251;53.568;10.018;2024-02-21T07:43:56;11.40;97.10
16287;DHT22;8251;53.568;10.018;2024-02-21T07:46:24;11.40;97.10
16287;DHT22;8251;53.568;10.018;2024-02-21T07:49:02;11.40;97.20
16287;DHT22;8251;53.568;10.018;2024-02-21T07:52:00;11.40;97.30
16287;DHT22;8251;53.568;10.018;2024-02-21T07:54:36;11.40;97.30
16287;DHT22;8251;53.568;10.018;2024-02-21T07:57:03;11.40;97.30
16287;DHT22;8251;53.568;10.018;2024-02-21T07:59:31;11.40;97.30
16287;DHT22;8251;53.568;10.018;2024-02-21T08:02:02;11.40;97.30
16287;DHT22;8251;53.568;10.018;2024-02-21T08:04:32;11.50;97.30
16287;DHT22;8251;53.568;10.018;2024-02-21T08:07:04;11.60;97.30
16287;DHT22;8251;53.568;10.018;2024-02-21T08:09:31;11.60;97.20
16287;DHT22;8251;53.568;10.018;2024-02-21T08:11:58;11.60;97.10
16287;DHT22;8251;53.568;10.018;2024-02-21T08:14:25;11.60;97.10
16287;DHT22;8251;53.568;10.018;2024-02-21T08:16:57;11.70;97.00
16287;DHT22;8251;53.568;10.018;2024-02-21T08:19:25;11.70;96.90
16287;DHT22;8251;53.568;10.018;2024-02-21T08:21:52;11.70;96.80
16287;DHT22;8251;53.568;10.018;2024-02-21T08:24:20;11.70;96.70
16287;DHT22;8251;53.568;10.018;2024-02-21T08:26:48;11.70;96.50
16287;DHT22;8251;53.568;10.018;2024-02-21T08:29:19;11.70;96.50
16287;DHT22;8251;53.568;10.018;2024-02-21T08:31:46;11.70;96.40
16287;DHT22;8251;53.568;10.018;2024-02-21T08:34:14;11.70;96.40
16287;DHT22;8251;53.568;10.018;2024-02-21T08:36:45;11.80;96.30
16287;DHT22;8251;53.568;10.018;2024-02-21T08:39:13;11.80;96.10
16287;DHT22;8251;53.568;10.018;2024-02-21T08:41:52;11.80;96.00
16287;DHT22;8251;53.568;10.018;2024-02-21T08:44:27;11.80;96.10
16287;DHT22;8251;53.568;10.018;2024-02-21T08:46:55;11.80;96.00
16287;DHT22;8251;53.568;10.018;2024-02-21T08:49:23;11.80;96.00
16287;DHT22;8251;53.568;10.018;2024-02-21T08:51:57;11.80;96.00
16287;DHT22;8251;53.568;10.018;2024-02-21T08:54:25;11.90;96.00
16287;DHT22;8251;53.568;10.018;2024-02-21T08:56:54;11.80;95.80
16287;DHT22;8251;53.568;10.018;2024-02-21T08:59:22;11.80;95.80
16287;DHT22;8251;53.568;10.018;2024-02-21T09:01:49;11.90;95.80
16287;DHT22;8251;53.568;10.018;2024-02-21T09:04:15;11.90;95.70
16287;DHT22;8251;53.568;10.018;2024-02-21T09:06:43;11.80;95.80
16287;DHT22;8251;53.568;10.018;2024-02-21T09:09:12;11.80;95.90
16287;DHT22;8251;53.568;10.018;2024-02-21T09:11:39;11.90;95.90
16287;DHT22;8251;53.568;10.018;2024-02-21T09:14:07;11.90;95.90
16287;DHT22;8251;53.568;10.018;2024-02-21T09:16:35;11.90;95.80
16287;DHT22;8251;53.568;10.018;2024-02-21T09:19:02;11.90;95.70
16287;DHT22;8251;53.568;10.018;2024-02-21T09:21:30;12.00;95.70
16287;DHT22;8251;53.568;10.018;2024-02-21T09:24:01;12.00;95.70
16287;DHT22;8251;53.568;10.018;2024-02-21T09:26:29;11.90;95.60
16287;DHT22;8251;53.568;10.018;2024-02-21T09:28:58;11.90;95.60
16287;DHT22;8251;53.568;10.018;2024-02-21T09:31:26;11.90;95.50
16287;DHT22;8251;53.568;10.018;2024-02-21T09:33:56;11.90;95.50
16287;DHT22;8251;53.568;10.018;2024-02-21T09:36:23;12.00;95.60
16287;DHT22;8251;53.568;10.018;2024-02-21T09:38:50;11.90;95.50
16287;DHT22;8251;53.568;10.018;2024-02-21T09:41:18;11.90;95.30
16287;DHT22;8251;53.568;10.018;2024-02-21T09:43:52;11.90;95.50
16287;DHT22;8251;53.568;10.018;2024-02-21T09:46:28;11.90;95.60
16287;DHT22;8251;53.568;10.018;2024-02-21T09:49:05;11.90;96.00
16287;DHT22;8251;53.568;10.018;2024-02-21T09:51:36;12.00;95.70
16287;DHT22;8251;53.568;10.018;2024-02-21T09:54:07;12.00;95.70
16287;DHT22;8251;53.568;10.018;2024-02-21T09:56:34;12.10;95.70
16287;DHT22;8251;53.568;10.018;2024-02-21T09:59:02;12.00;95.60
16287;DHT22;8251;53.568;10.018;2024-02-21T10:01:31;12.00;95.70
16287;DHT22;8251;53.568;10.018;2024-02-21T10:03:58;12.00;95.80
16287;DHT22;8251;53.568;10.018;2024-02-21T10:06:25;12.00;95.80
16287;DHT22;8251;53.568;10.018;2024-02-21T10:09:01;12.00;95.70
16287;DHT22;8251;53.568;10.018;2024-02-21T10:11:32;12.00;95.70
16287;DHT22;8251;53.568;10.018;2024-02-21T10:14:03;12.00;95.70
16287;DHT22;8251;53.568;10.018;2024-02-21T10:16:33;12.00;95.80
16287;DHT22;8251;53.568;10.018;2024-02-21T10:19:03;12.00;95.90
16287;DHT22;8251;53.568;10.018;2024-02-21T10:21:29;12.00;96.00
16287;DHT22;8251;53.568;10.018;2024-02-21T10:23:57;12.00;95.90
16287;DHT22;8251;53.568;10.018;2024-02-21T10:26:31;12.00;96.00
16287;DHT22;8251;53.568;10.018;2024-02-21T10:29:06;12.00;96.00
16287;DHT22;8251;53.568;10.018;2024-02-21T10:31:39;12.00;96.00
16287;DHT22;8251;53.568;10.018;2024-02-21T10:34:06;12.00;96.00
16287;DHT22;8251;53.568;10.018;2024-02-21T10:36:34;12.00;96.00
16287;DHT22;8251;53.568;10.018;2024-02-21T10:39:01;12.00;96.00
16287;DHT22;8251;53.568;10.018;2024-02-21T10:41:28;12.00;96.00
16287;DHT22;8251;53.568;10.018;2024-02-21T10:43:57;12.00;96.50
16287;DHT22;8251;53.568;10.018;2024-02-21T10:46:25;12.00;96.10
16287;DHT22;8251;53.568;10.018;2024-02-21T10:49:01;12.00;95.90
16287;DHT22;8251;53.568;10.018;2024-02-21T10:51:35;12.00;96.00
16287;DHT22;8251;53.568;10.018;2024-02-21T10:54:13;12.00;96.00
16287;DHT22;8251;53.568;10.018;2024-02-21T10:56:43;11.90;96.00
16287;DHT22;8251;53.568;10.018;2024-02-21T10:59:13;12.00;96.10
16287;DHT22;8251;53.568;10.018;2024-02-21T11:01:40;12.00;96.00
16287;DHT22;8251;53.568;10.018;2024-02-21T11:04:12;12.00;95.90
16287;DHT22;8251;53.568;10.018;2024-02-21T11:06:44;12.10;95.80
16287;DHT22;8251;53.568;10.018;2024-02-21T11:09:11;12.10;95.70
16287;DHT22;8251;53.568;10.018;2024-02-21T11:11:39;12.10;95.60
16287;DHT22;8251;53.568;10.018;2024-02-21T11:14:10;12.00;95.60
16287;DHT22;8251;53.568;10.018;2024-02-21T11:16:40;12.00;95.60
16287;DHT22;8251;53.568;10.018;2024-02-21T11:19:20;12.00;95.50
16287;DHT22;8251;53.568;10.018;2024-02-21T11:21:48;12.10;95.40
16287;DHT22;8251;53.568;10.018;2024-02-21T11:24:26;12.00;95.40
16287;DHT22;8251;53.568;10.018;2024-02-21T11:26:54;12.10;95.40
16287;DHT22;8251;53.568;10.018;2024-02-21T11:29:25;12.10;95.20
16287;DHT22;8251;53.568;10.018;2024-02-21T11:31:52;12.10;95.20
16287;DHT22;8251;53.568;10.018;2024-02-21T11:34:21;12.00;95.20
16287;DHT22;8251;53.568;10.018;2024-02-21T11:36:48;12.00;95.20
16287;DHT22;8251;53.568;10.018;2024-02-21T11:39:20;12.00;95.20
16287;DHT22;8251;53.568;10.018;2024-02-21T11:41:49;12.00;95.20
16287;DHT22;8251;53.568;10.018;2024-02-21T11:44:27;12.00;95.10
16287;DHT22;8251;53.568;10.018;2024-02-21T11:46:54;12.10;94.90
16287;DHT22;8251;53.568;10.018;2024-02-21T11:49:25;12.00;94.70
16287;DHT22;8251;53.568;10.018;2024-02-21T11:51:58;11.90;94.80
16287;DHT22;8251;53.568;10.018;2024-02-21T11:54:25;12.00;94.70
16287;DHT22;8251;53.568;10.018;2024-02-21T11:56:52;12.00;94.50
16287;DHT22;8251;53.568;10.018;2024-02-21T11:59:26;11.90;94.50
16287;DHT22;8251;53.568;10.018;2024-02-21T12:01:56;11.90;94.70
16287;DHT22;8251;53.568;10.018;2024-02-21T12:04:26;11.90;94.70
16287;DHT22;8251;53.568;10.018;2024-02-21T12:06:56;11.90;94.50
16287;DHT22;8251;53.568;10.018;2024-02-21T12:09:23;11.90;94.50
16287;DHT22;8251;53.568;10.018;2024-02-21T12:11:58;11.90;94.60
16287;DHT22;8251;53.568;10.018;2024-02-21T12:14:26;11.90;94.60
16287;DHT22;8251;53.568;10.018;2024-02-21T12:16:54;12.00;94.70
16287;DHT22;8251;53.568;10.018;2024-02-21T12:19:21;12.00;94.50
16287;DHT22;8251;53.568;10.018;2024-02-21T12:21:53;12.00;94.40
16287;DHT22;8251;53.568;10.018;2024-02-21T12:24:22;11.90;94.40
16287;DHT22;8251;53.568;10.018;2024-02-21T12:26:49;12.00;94.50
16287;DHT22;8251;53.568;10.018;2024-02-21T12:29:17;12.00;94.50
16287;DHT22;8251;53.568;10.018;2024-02-21T12:31:45;12.00;94.30
16287;DHT22;8251;53.568;10.018;2024-02-21T12:34:12;12.00;94.20
16287;DHT22;8251;53.568;10.018;2024-02-21T12:36:41;12.10;94.30
16287;DHT22;8251;53.568;10.018;2024-02-21T12:39:10;12.10;94.20
16287;DHT22;8251;53.568;10.018;2024-02-21T12:41:37;12.10;94.30
16287;DHT22;8251;53.568;10.018;2024-02-21T12:44:06;12.00;94.30
16287;DHT22;8251;53.568;10.018;2024-02-21T12:48:02;12.00;94.20
16287;DHT22;8251;53.568;10.018;2024-02-21T12:50:39;12.00;94.30
16287;DHT22;8251;53.568;10.018;2024-02-21T12:53:10;12.10;94.40
16287;DHT22;8251;53.568;10.018;2024-02-21T12:55:40;12.10;94.50
16287;DHT22;8251;53.568;10.018;2024-02-21T12:58:07;12.10;94.40
16287;DHT22;8251;53.568;10.018;2024-02-21T13:00:37;12.10;94.30
16287;DHT22;8251;53.568;10.018;2024-02-21T13:03:04;12.10;94.10
16287;DHT22;8251;53.568;10.018;2024-02-21T13:05:31;12.10;94.30
16287;DHT22;8251;53.568;10.018;2024-02-21T13:08:00;12.20;94.20
16287;DHT22;8251;53.568;10.018;2024-02-21T13:10:27;12.10;94.00
16287;DHT22;8251;53.568;10.018;2024-02-21T13:12:54;12.10;94.10
16287;DHT22;8251;53.568;10.018;2024-02-21T13:15:21;12.10;94.00
16287;DHT22;8251;53.568;10.018;2024-02-21T13:17:49;12.20;94.20
16287;DHT22;8251;53.568;10.018;2024-02-21T13:20:18;12.20;94.10
16287;DHT22;8251;53.568;10.018;2024-02-21T13:22:48;12.20;94.00
16287;DHT22;8251;53.568;10.018;2024-02-21T13:25:17;12.20;94.00
16287;DHT22;8251;53.568;10.018;2024-02-21T13:27:49;12.30;94.00
16287;DHT22;8251;53.568;10.018;2024-02-21T13:30:16;12.30;93.90
16287;DHT22;8251;53.568;10.018;2024-02-21T13:32:47;12.40;93.80
16287;DHT22;8251;53.568;10.018;2024-02-21T13:35:14;12.50;93.80
16287;DHT22;8251;53.568;10.018;2024-02-21T13:37:41;12.50;93.50
16287;DHT22;8251;53.568;10.018;2024-02-21T13:40:09;12.50;93.40
16287;DHT22;8251;53.568;10.018;2024-02-21T13:42:37;12.60;93.40
16287;DHT22;8251;53.568;10.018;2024-02-21T13:45:09;12.60;93.10
16287;DHT22;8251;53.568;10.018;2024-02-21T13:47:35;12.70;93.10
16287;DHT22;8251;53.568;10.018;2024-02-21T13:50:07;12.80;93.20
16287;DHT22;8251;53.568;10.018;2024-02-21T13:52:36;12.80;93.00
16287;DHT22;8251;53.568;10.018;2024-02-21T13:55:03;12.90;92.80
16287;DHT22;8251;53.568;10.018;2024-02-21T13:57:38;12.90;92.80
16287;DHT22;8251;53.568;10.018;2024-02-21T14:00:11;13.00;92.80
16287;DHT22;8251;53.568;10.018;2024-02-21T14:02:38;13.10;92.50
16287;DHT22;8251;53.568;10.018;2024-02-21T14:05:05;13.10;92.30
16287;DHT22;8251;53.568;10.018;2024-02-21T14:07:35;13.10;92.20
16287;DHT22;8251;53.568;10.018;2024-02-21T14:10:03;13.10;92.20
16287;DHT22;8251;53.568;10.018;2024-02-21T14:12:33;13.10;92.10
16287;DHT22;8251;53.568;10.018;2024-02-21T14:15:02;13.20;91.90
16287;DHT22;8251;53.568;10.018;2024-02-21T14:17:28;13.10;91.80
16287;DHT22;8251;53.568;10.018;2024-02-21T14:19:58;13.20;91.80
16287;DHT22;8251;53.568;10.018;2024-02-21T14:22:25;13.20;91.70
16287;DHT22;8251;53.568;10.018;2024-02-21T14:24:52;13.10;91.20
16287;DHT22;8251;53.568;10.018;2024-02-21T14:27:19;13.20;91.20
16287;DHT22;8251;53.568;10.018;2024-02-21T14:29:46;13.20;91.30
16287;DHT22;8251;53.568;10.018;2024-02-21T14:32:14;13.20;91.20
16287;DHT22;8251;53.568;10.018;2024-02-21T14:34:44;13.30;91.10
16287;DHT22;8251;53.568;10.018;2024-02-21T14:37:11;13.30;90.90
16287;DHT22;8251;53.568;10.018;2024-02-21T14:39:38;13.20;90.80
16287;DHT22;8251;53.568;10.018;2024-02-21T14:42:06;13.30;90.70
16287;DHT22;8251;53.568;10.018;2024-02-21T14:44:35;13.30;90.60
16287;DHT22;8251;53.568;10.018;2024-02-21T14:47:02;13.30;90.40
16287;DHT22;8251;53.568;10.018;2024-02-21T14:49:30;13.30;90.20
16287;DHT22;8251;53.568;10.018;2024-02-21T14:51:57;13.30;89.90
16287;DHT22;8251;53.568;10.018;2024-02-21T14:54:24;13.30;90.20
16287;DHT22;8251;53.568;10.018;2024-02-21T14:56:51;13.30;90.30
16287;DHT22;8251;53.568;10.018;2024-02-21T14:59:19;13.30;90.10
16287;DHT22;8251;53.568;10.018;2024-02-21T15:01:46;13.30;90.20
16287;DHT22;8251;53.568;10.018;2024-02-21T15:04:13;13.30;90.20
16287;DHT22;8251;53.568;10.018;2024-02-21T15:06:44;13.40;90.40
16287;DHT22;8251;53.568;10.018;2024-02-21T15:09:17;13.40;90.30
16287;DHT22;8251;53.568;10.018;2024-02-21T15:11:44;13.40;90.30
16287;DHT22;8251;53.568;10.018;2024-02-21T15:14:14;13.40;89.60
16287;DHT22;8251;53.568;10.018;2024-02-21T15:16:41;13.40;89.90
16287;DHT22;8251;53.568;10.018;2024-02-21T15:19:08;13.40;90.00
16287;DHT22;8251;53.568;10.018;2024-02-21T15:21:35;13.40;90.00
16287;DHT22;8251;53.568;10.018;2024-02-21T15:24:03;13.50;89.90
16287;DHT22;8251;53.568;10.018;2024-02-21T15:26:30;13.40;89.70
16287;DHT22;8251;53.568;10.018;2024-02-21T15:28:57;13.40;89.50
16287;DHT22;8251;53.568;10.018;2024-02-21T15:31:24;13.40;89.60
16287;DHT22;8251;53.568;10.018;2024-02-21T15:33:52;13.40;89.40
16287;DHT22;8251;53.568;10.018;2024-02-21T15:36:20;13.40;89.10
16287;DHT22;8251;53.568;10.018;2024-02-21T15:38:50;13.30;88.80
16287;DHT22;8251;53.568;10.018;2024-02-21T15:41:18;13.30;88.80
16287;DHT22;8251;53.568;10.018;2024-02-21T15:43:48;13.30;87.60
16287;DHT22;8251;53.568;10.018;2024-02-21T15:46:17;13.20;87.30